Главная страница
METAR-TAF:

METAR-TAF

Аэропорты :

Берлевог, Норвегия

широта: 70-52N, долгота: 029-02E, высота над уровнем моря: 1 м

Текущие метеонаблюдения

Эта сводка был подготовлена 6 часа и 18 минут назад, в 10:50 UTC
Ветер 13 Узел от восточно-юго-восточный
Температура 9°C
Влажность 66%
Давление 1025 hPa
Видимость 10 км и более
небольшая облачность на высоте 1900 фута
Отдельные облака на высоте 3900 фута

METAR: ENBV 191050Z 11013KT 9999 FEW019 SCT039 09/03 Q1025

Время: 19:08 (17:08 UTC)

Прогноз

Эта сводка был подготовлена 9 часа и 8 минут назад, в 08:00 UTC
Прогноз действительный с 19-го 09 UTC до 19-го 12 UTC
Ветер 8 Узел от восточно-юго-восточный
Видимость 10 км и более
Отдельные облака на высоте 3000 фута

TAF: ENBV 190800Z 1909/1912 12008KT 9999 SCT030

Метеонаблюдения и прогнозы для более 4000 аэропортов (сводки METAR и TAF).

Имеющиеся станции представлены на карте желтыми и красными точками.

Чтобы увидеть название станции, наведите на нее мышь.

Затем щелкните, чтобы увидеть метеонаблюдения и метеопрогнозы.

Управление картой: чтобы увеличить масштаб, щелкните зеленые кнопки с черным крестиком; чтобы уменьшить масштаб, щелкните зеленую кнопку с тире; для просмотра соседних карт щелкайте зеленые стрелки.


METAR-TAF: